createdAt,value
2018-06-11T00:01:18.633Z,17.10
2018-06-11T00:03:47.610Z,17.10
2018-06-11T00:06:16.164Z,17.10
2018-06-11T00:08:45.545Z,17.00
2018-06-11T00:11:14.125Z,17.00
2018-06-11T00:13:42.786Z,17.00
2018-06-11T00:16:12.256Z,17.00
2018-06-11T00:18:41.464Z,17.00
2018-06-11T00:21:10.359Z,17.00
2018-06-11T00:23:38.931Z,17.00
2018-06-11T00:26:07.503Z,16.90
2018-06-11T00:28:36.005Z,16.90
2018-06-11T00:31:04.707Z,16.80
2018-06-11T00:33:33.235Z,16.80
2018-06-11T00:36:01.807Z,16.80
2018-06-11T00:38:30.410Z,16.80
2018-06-11T00:40:59.618Z,16.80
2018-06-11T00:43:28.248Z,16.70
2018-06-11T00:45:56.892Z,16.70
2018-06-11T00:48:25.461Z,16.70
2018-06-11T00:50:54.646Z,16.70
2018-06-11T00:53:23.168Z,16.70
2018-06-11T00:56:03.301Z,16.70
2018-06-11T00:58:32.989Z,16.70
2018-06-11T01:01:01.636Z,16.60
2018-06-11T01:03:30.323Z,16.60
2018-06-11T01:05:58.960Z,16.60
2018-06-11T01:08:27.510Z,16.50
2018-06-11T01:10:56.056Z,16.50
2018-06-11T01:13:24.637Z,16.50
2018-06-11T01:15:53.624Z,16.40
2018-06-11T01:18:25.209Z,16.50
2018-06-11T01:20:53.799Z,16.50
2018-06-11T01:23:22.651Z,16.40
2018-06-11T01:25:51.253Z,16.40
2018-06-11T01:28:19.800Z,16.40
2018-06-11T01:30:48.672Z,16.40
2018-06-11T01:33:17.260Z,16.40
2018-06-11T01:35:45.878Z,16.40
2018-06-11T01:38:14.441Z,16.40
2018-06-11T01:40:43.910Z,16.40
2018-06-11T01:43:12.546Z,16.40
2018-06-11T01:45:41.081Z,16.40
2018-06-11T01:48:09.775Z,16.30
2018-06-11T01:50:38.439Z,16.30
2018-06-11T01:53:06.975Z,16.30
2018-06-11T01:55:35.562Z,16.30
2018-06-11T01:58:04.544Z,16.30
2018-06-11T02:00:33.437Z,16.20
2018-06-11T02:03:02.123Z,16.20
2018-06-11T02:05:30.723Z,16.20
2018-06-11T02:07:59.263Z,16.20
2018-06-11T02:10:27.831Z,16.20
2018-06-11T02:12:56.425Z,16.20
2018-06-11T02:15:25.002Z,16.10
2018-06-11T02:17:53.581Z,16.10
2018-06-11T02:20:22.204Z,16.10
2018-06-11T02:22:50.766Z,16.10
2018-06-11T02:25:19.350Z,16.10
2018-06-11T02:27:47.889Z,16.10
2018-06-11T02:30:16.467Z,16.00
2018-06-11T02:32:45.076Z,16.00
2018-06-11T02:35:13.743Z,16.00
2018-06-11T02:37:42.279Z,16.00
2018-06-11T02:40:10.869Z,15.90
2018-06-11T02:42:39.374Z,15.90
2018-06-11T02:45:08.580Z,15.90
2018-06-11T02:47:37.340Z,15.90
2018-06-11T02:50:06.317Z,15.90
2018-06-11T02:52:35.011Z,15.80
2018-06-11T02:55:03.615Z,15.80
2018-06-11T02:57:32.110Z,15.80
2018-06-11T03:00:00.697Z,15.80
2018-06-11T03:02:29.507Z,15.70
2018-06-11T03:04:58.044Z,15.70
2018-06-11T03:07:26.600Z,15.70
2018-06-11T03:09:55.543Z,15.70
2018-06-11T03:12:24.855Z,15.70
2018-06-11T03:14:53.695Z,15.70
2018-06-11T03:19:50.566Z,15.80
2018-06-11T03:22:19.135Z,15.80
2018-06-11T03:24:48.449Z,15.80
2018-06-11T03:27:17.328Z,15.80
2018-06-11T03:29:45.914Z,15.80
2018-06-11T03:32:14.741Z,15.80
2018-06-11T03:37:12.501Z,15.90
2018-06-11T03:39:41.043Z,15.90
2018-06-11T03:42:09.668Z,15.90
2018-06-11T03:44:38.277Z,15.90
2018-06-11T03:47:06.816Z,15.90
2018-06-11T03:49:35.375Z,15.90
2018-06-11T03:52:04.265Z,15.90
2018-06-11T03:54:32.899Z,15.90
2018-06-11T03:57:01.507Z,16.00
2018-06-11T03:59:30.082Z,16.00
2018-06-11T04:01:58.675Z,16.00
2018-06-11T04:04:27.482Z,16.00
2018-06-11T04:06:56.096Z,16.10
2018-06-11T04:09:24.599Z,16.10
2018-06-11T04:11:53.166Z,16.10
2018-06-11T04:14:21.701Z,16.20
2018-06-11T04:16:50.539Z,16.30
2018-06-11T04:19:19.242Z,16.30
2018-06-11T04:21:47.843Z,16.40
2018-06-11T04:24:16.370Z,16.40
2018-06-11T04:26:45.253Z,16.50
2018-06-11T04:29:13.865Z,16.50
2018-06-11T04:31:42.612Z,16.50
2018-06-11T04:34:11.411Z,16.60
2018-06-11T04:36:40.670Z,16.50
2018-06-11T04:39:09.522Z,16.50
2018-06-11T04:44:06.699Z,16.60
2018-06-11T04:46:35.204Z,16.60
2018-06-11T04:49:04.350Z,16.60
2018-06-11T04:51:32.878Z,16.60
2018-06-11T04:54:01.844Z,16.60
2018-06-11T04:56:30.360Z,16.60
2018-06-11T04:58:58.862Z,16.70
2018-06-11T05:01:27.692Z,16.70
2018-06-11T05:03:56.307Z,16.70
2018-06-11T05:06:24.838Z,16.80
2018-06-11T05:08:53.350Z,16.80
2018-06-11T05:11:21.954Z,16.80
2018-06-11T05:13:50.476Z,16.90
2018-06-11T05:16:18.990Z,17.00
2018-06-11T05:18:47.600Z,17.00
2018-06-11T05:21:16.087Z,17.10
2018-06-11T05:23:44.591Z,17.10
2018-06-11T05:26:13.116Z,17.10
2018-06-11T05:28:41.760Z,17.10
2018-06-11T05:31:10.913Z,17.10
2018-06-11T05:33:40.016Z,17.10
2018-06-11T05:36:08.885Z,17.20
2018-06-11T05:38:37.512Z,17.20
2018-06-11T05:41:06.141Z,17.30
2018-06-11T05:43:34.709Z,17.30
2018-06-11T05:46:03.295Z,17.40
2018-06-11T05:48:32.226Z,17.50
2018-06-11T05:51:00.765Z,17.60
2018-06-11T05:53:29.428Z,17.60
2018-06-11T05:55:57.944Z,17.70
2018-06-11T05:58:26.444Z,17.70
2018-06-11T06:00:55.001Z,17.80
2018-06-11T06:03:23.746Z,17.80
2018-06-11T06:05:52.312Z,17.90
2018-06-11T06:08:20.885Z,17.90
2018-06-11T06:10:49.667Z,17.90
2018-06-11T06:13:18.176Z,17.80
2018-06-11T06:15:46.714Z,17.90
2018-06-11T06:18:15.320Z,17.90
2018-06-11T06:20:43.925Z,18.00
2018-06-11T06:23:12.615Z,18.00
2018-06-11T06:25:41.196Z,18.10
2018-06-11T06:28:10.011Z,18.10
2018-06-11T06:30:38.647Z,18.20
2018-06-11T06:33:09.153Z,18.20
2018-06-11T06:35:37.683Z,18.20
2018-06-11T06:38:06.268Z,18.20
2018-06-11T06:40:34.883Z,18.40
2018-06-11T06:43:03.647Z,18.30
2018-06-11T06:45:32.965Z,18.40
2018-06-11T06:48:01.824Z,18.50
2018-06-11T06:50:30.707Z,18.50
2018-06-11T06:52:59.354Z,18.50
2018-06-11T06:55:28.271Z,18.50
2018-06-11T06:57:56.918Z,18.60
2018-06-11T07:00:25.503Z,18.60
2018-06-11T07:02:54.731Z,18.70
2018-06-11T07:05:23.306Z,18.90
2018-06-11T07:07:52.254Z,19.00
2018-06-11T07:10:20.769Z,19.20
2018-06-11T07:12:49.294Z,19.30
2018-06-11T07:15:17.861Z,19.60
2018-06-11T07:17:46.570Z,19.60
2018-06-11T07:20:15.122Z,19.70
2018-06-11T07:22:44.622Z,19.80
2018-06-11T07:25:13.333Z,20.00
2018-06-11T07:27:41.995Z,19.90
2018-06-11T07:30:10.642Z,20.10
2018-06-11T07:32:39.205Z,20.30
2018-06-11T07:35:07.806Z,20.40
2018-06-11T07:37:36.328Z,20.30
2018-06-11T07:40:05.114Z,20.20
2018-06-11T07:42:34.128Z,20.10
2018-06-11T07:45:03.137Z,20.30
2018-06-11T07:47:31.782Z,20.70
2018-06-11T07:50:00.394Z,20.80
2018-06-11T07:52:28.955Z,21.00
2018-06-11T07:54:57.900Z,21.60
2018-06-11T07:57:26.488Z,21.70
2018-06-11T07:59:55.092Z,21.50
2018-06-11T08:02:23.628Z,21.80
2018-06-11T08:04:52.704Z,22.20
2018-06-11T08:07:21.274Z,22.10
2018-06-11T08:09:49.700Z,22.00
2018-06-11T08:12:18.545Z,22.00
2018-06-11T08:14:47.034Z,22.00
2018-06-11T08:17:15.493Z,22.00
2018-06-11T08:19:44.116Z,22.00
2018-06-11T08:22:12.959Z,22.00
2018-06-11T08:24:41.563Z,22.10
2018-06-11T08:27:10.023Z,22.30
2018-06-11T08:29:38.482Z,22.80
2018-06-11T08:32:06.970Z,23.40
2018-06-11T08:34:35.403Z,23.70
2018-06-11T08:37:03.884Z,23.50
2018-06-11T08:39:32.422Z,24.20
2018-06-11T08:42:00.908Z,24.20
2018-06-11T08:44:29.386Z,23.70
2018-06-11T08:46:57.927Z,23.80
2018-06-11T08:49:26.576Z,23.40
2018-06-11T08:51:55.192Z,23.00
2018-06-11T08:54:24.214Z,22.60
2018-06-11T08:56:53.220Z,22.80
2018-06-11T08:59:21.825Z,23.20
2018-06-11T09:01:50.308Z,24.20
2018-06-11T09:04:18.895Z,24.60
2018-06-11T09:06:47.432Z,25.30
2018-06-11T09:09:15.972Z,25.40
2018-06-11T09:11:44.563Z,25.10
2018-06-11T09:14:13.148Z,24.40
2018-06-11T09:16:41.745Z,24.00
2018-06-11T09:19:10.325Z,24.00
2018-06-11T09:21:38.771Z,25.00
2018-06-11T09:24:07.606Z,25.00
2018-06-11T09:26:36.148Z,24.80
2018-06-11T09:29:05.417Z,24.40
2018-06-11T09:31:33.929Z,23.60
2018-06-11T09:34:02.931Z,23.20
2018-06-11T09:36:31.480Z,22.80
2018-06-11T09:39:00.353Z,22.70
2018-06-11T09:41:28.872Z,23.30
2018-06-11T09:43:58.535Z,24.20
2018-06-11T09:46:27.030Z,24.80
2018-06-11T09:48:55.563Z,25.10
2018-06-11T09:51:24.165Z,25.80
2018-06-11T09:53:52.815Z,25.60
2018-06-11T09:56:21.788Z,24.80
2018-06-11T09:58:50.288Z,25.00
2018-06-11T10:01:18.838Z,25.10
2018-06-11T10:03:47.607Z,25.00
2018-06-11T10:06:16.200Z,24.70
2018-06-11T10:08:45.059Z,25.10
2018-06-11T10:11:13.746Z,25.40
2018-06-11T10:13:42.711Z,25.60
2018-06-11T10:16:11.846Z,25.80
2018-06-11T10:18:40.388Z,26.30
2018-06-11T10:21:08.900Z,26.80
2018-06-11T10:23:37.511Z,26.10
2018-06-11T10:26:06.069Z,26.20
2018-06-11T10:28:34.606Z,26.40
2018-06-11T10:33:31.353Z,26.60
2018-06-11T10:35:59.886Z,26.90
2018-06-11T10:38:28.401Z,26.80
2018-06-11T10:40:57.135Z,26.80
2018-06-11T10:43:25.748Z,25.50
2018-06-11T10:45:54.241Z,25.70
2018-06-11T10:48:22.734Z,26.40
2018-06-11T10:50:51.255Z,27.10
2018-06-11T10:53:20.014Z,27.30
2018-06-11T10:55:48.502Z,27.90
2018-06-11T10:58:16.957Z,27.90
2018-06-11T11:00:45.462Z,27.90
2018-06-11T11:03:13.996Z,27.10
2018-06-11T11:05:42.565Z,27.60
2018-06-11T11:08:11.116Z,28.00
2018-06-11T11:10:40.131Z,27.80
2018-06-11T11:13:08.789Z,27.70
2018-06-11T11:15:37.436Z,27.60
2018-06-11T11:18:06.436Z,28.00
2018-06-11T11:20:35.016Z,28.20
2018-06-11T11:23:04.237Z,27.80
2018-06-11T11:25:32.785Z,28.60
2018-06-11T11:28:01.322Z,28.90
2018-06-11T11:30:29.880Z,28.80
2018-06-11T11:32:58.457Z,28.10
2018-06-11T11:35:27.082Z,28.50
2018-06-11T11:37:55.668Z,26.80
2018-06-11T11:40:24.184Z,27.80
2018-06-11T11:42:52.671Z,28.10
2018-06-11T11:45:21.197Z,28.00
2018-06-11T11:47:49.696Z,28.30
2018-06-11T11:50:19.981Z,28.40
2018-06-11T11:52:48.523Z,28.30
2018-06-11T11:55:17.091Z,28.90
2018-06-11T11:57:45.613Z,28.60
2018-06-11T12:00:14.159Z,27.80
2018-06-11T12:02:42.741Z,28.40
2018-06-11T12:05:11.771Z,29.00
2018-06-11T12:07:40.404Z,29.40
2018-06-11T12:10:08.928Z,28.90
2018-06-11T12:12:37.615Z,29.00
2018-06-11T12:15:06.165Z,29.00
2018-06-11T12:17:34.991Z,29.30
2018-06-11T12:20:03.840Z,29.50
2018-06-11T12:22:32.390Z,28.90
2018-06-11T12:25:00.930Z,29.00
2018-06-11T12:27:29.576Z,29.20
2018-06-11T12:29:58.338Z,28.10
2018-06-11T12:32:26.882Z,28.40
2018-06-11T12:34:55.445Z,29.20
2018-06-11T12:37:23.993Z,29.80
2018-06-11T12:39:52.507Z,29.60
2018-06-11T12:42:21.043Z,29.80
2018-06-11T12:44:49.555Z,29.90
2018-06-11T12:47:18.136Z,29.50
2018-06-11T12:49:46.641Z,29.10
2018-06-11T12:52:15.448Z,29.90
2018-06-11T12:54:43.943Z,29.70
2018-06-11T12:57:12.445Z,28.80
2018-06-11T12:59:40.917Z,29.90
2018-06-11T13:02:09.419Z,29.40
2018-06-11T13:04:37.953Z,29.10
2018-06-11T13:07:06.458Z,29.50
2018-06-11T13:09:35.017Z,29.70
2018-06-11T13:12:03.607Z,29.60
2018-06-11T13:14:32.136Z,29.80
2018-06-11T13:17:00.684Z,29.50
2018-06-11T13:19:29.363Z,29.20
2018-06-11T13:21:58.037Z,29.80
2018-06-11T13:24:26.622Z,30.00
2018-06-11T13:26:55.114Z,30.60
2018-06-11T13:29:23.570Z,31.30
2018-06-11T13:31:52.155Z,30.50
2018-06-11T13:34:20.644Z,30.40
2018-06-11T13:36:49.250Z,30.70
2018-06-11T13:39:17.841Z,30.70
2018-06-11T13:41:46.647Z,30.00
2018-06-11T13:44:16.004Z,30.70
2018-06-11T13:46:44.778Z,30.00
2018-06-11T13:49:13.398Z,30.70
2018-06-11T13:51:42.019Z,30.60
2018-06-11T13:54:10.793Z,30.90
2018-06-11T13:56:39.754Z,30.70
2018-06-11T13:59:08.477Z,31.10
2018-06-11T14:01:37.413Z,30.70
2018-06-11T14:04:05.993Z,31.20
2018-06-11T14:06:34.571Z,31.10
2018-06-11T14:09:03.175Z,31.20
2018-06-11T14:11:32.356Z,30.90
2018-06-11T14:14:00.862Z,31.00
2018-06-11T14:16:29.309Z,31.50
2018-06-11T14:18:57.788Z,30.90
2018-06-11T14:21:26.347Z,31.00
2018-06-11T14:23:58.476Z,30.50
2018-06-11T14:26:28.859Z,30.50
2018-06-11T14:28:57.429Z,30.90
2018-06-11T14:31:26.138Z,29.80
2018-06-11T14:33:54.791Z,31.10
2018-06-11T14:36:23.449Z,31.20
2018-06-11T14:38:52.032Z,31.10
2018-06-11T14:41:20.746Z,31.20
2018-06-11T14:43:49.684Z,31.60
2018-06-11T14:46:18.605Z,31.10
2018-06-11T14:48:47.242Z,31.20
2018-06-11T14:51:16.263Z,31.40
2018-06-11T14:53:45.185Z,30.60
2018-06-11T14:56:14.019Z,31.10
2018-06-11T14:58:42.591Z,31.30
2018-06-11T15:01:11.249Z,30.80
2018-06-11T15:03:39.857Z,30.50
2018-06-11T15:06:08.368Z,30.50
2018-06-11T15:08:37.145Z,30.70
2018-06-11T15:11:05.756Z,31.00
2018-06-11T15:13:34.309Z,31.10
2018-06-11T15:16:02.785Z,30.70
2018-06-11T15:18:31.355Z,31.00
2018-06-11T15:20:59.961Z,30.90
2018-06-11T15:23:28.467Z,30.50
2018-06-11T15:25:56.909Z,30.70
2018-06-11T15:28:26.169Z,30.50
2018-06-11T15:30:54.995Z,29.90
2018-06-11T15:33:23.502Z,30.10
2018-06-11T15:35:52.008Z,30.20
2018-06-11T15:38:20.499Z,30.50
2018-06-11T15:40:49.303Z,30.10
2018-06-11T15:43:17.809Z,29.60
2018-06-11T15:45:46.353Z,29.00
2018-06-11T15:48:14.874Z,29.10
2018-06-11T15:50:43.347Z,29.10
2018-06-11T15:53:11.828Z,28.80
2018-06-11T15:55:40.315Z,28.70
2018-06-11T15:58:09.119Z,28.50
2018-06-11T16:00:37.963Z,28.20
2018-06-11T16:03:08.550Z,27.70
2018-06-11T16:05:39.295Z,28.00
2018-06-11T16:08:07.770Z,27.80
2018-06-11T16:10:37.003Z,27.10
2018-06-11T16:13:06.950Z,27.10
2018-06-11T16:18:06.761Z,27.40
2018-06-11T16:20:35.469Z,27.40
2018-06-11T16:23:04.009Z,27.20
2018-06-11T16:25:32.589Z,26.90
2018-06-11T16:28:01.250Z,26.80
2018-06-11T16:30:29.828Z,26.60
2018-06-11T16:32:58.512Z,26.60
2018-06-11T16:35:27.566Z,26.50
2018-06-11T16:37:56.300Z,26.40
2018-06-11T16:40:26.424Z,26.20
2018-06-11T16:43:41.334Z,26.10
2018-06-11T16:46:10.493Z,25.50
2018-06-11T16:48:39.081Z,25.50
2018-06-11T16:51:09.548Z,25.50
2018-06-11T16:53:38.045Z,25.40
2018-06-11T16:56:06.646Z,25.40
2018-06-11T17:01:04.545Z,25.00
2018-06-11T17:03:33.070Z,25.00
2018-06-11T17:06:02.459Z,25.00
2018-06-11T17:08:31.580Z,24.90
2018-06-11T17:11:00.043Z,24.80
2018-06-11T17:13:28.902Z,24.50
2018-06-11T17:15:57.359Z,24.50
2018-06-11T17:18:25.842Z,24.50
2018-06-11T17:20:54.314Z,24.60
2018-06-11T17:23:22.983Z,24.40
2018-06-11T17:25:51.435Z,24.40
2018-06-11T17:28:19.876Z,24.20
2018-06-11T17:30:48.443Z,24.10
2018-06-11T17:33:16.886Z,24.00
2018-06-11T17:35:45.383Z,23.90
2018-06-11T17:38:13.846Z,23.80
2018-06-11T17:40:42.318Z,23.90
2018-06-11T17:43:10.866Z,23.80
2018-06-11T17:45:39.414Z,23.70
2018-06-11T17:48:07.866Z,23.50
2018-06-11T17:50:38.633Z,23.50
2018-06-11T17:53:07.523Z,23.30
2018-06-11T17:55:36.399Z,23.30
2018-06-11T17:58:04.862Z,23.30
2018-06-11T18:00:33.491Z,23.30
2018-06-11T18:03:02.040Z,23.20
2018-06-11T18:05:30.612Z,23.10
2018-06-11T18:07:59.140Z,23.10
2018-06-11T18:10:27.673Z,23.00
2018-06-11T18:12:56.264Z,23.00
2018-06-11T18:15:24.811Z,22.90
2018-06-11T18:17:53.310Z,22.80
2018-06-11T18:20:21.873Z,22.70
2018-06-11T18:22:50.504Z,22.60
2018-06-11T18:25:19.004Z,22.70
2018-06-11T18:27:47.650Z,22.60
2018-06-11T18:30:16.187Z,22.60
2018-06-11T18:32:44.994Z,22.50
2018-06-11T18:35:13.525Z,22.50
2018-06-11T18:37:42.073Z,22.50
2018-06-11T18:40:10.584Z,22.30
2018-06-11T18:42:39.129Z,22.20
2018-06-11T18:45:07.728Z,22.20
2018-06-11T18:47:36.265Z,22.10
2018-06-11T18:50:05.030Z,22.10
2018-06-11T18:52:34.339Z,22.00
2018-06-11T18:55:02.907Z,21.90
2018-06-11T18:57:31.571Z,21.80
2018-06-11T19:00:00.277Z,21.70
2018-06-11T19:04:56.994Z,21.60
2018-06-11T19:07:25.513Z,21.60
2018-06-11T19:09:53.992Z,21.50
2018-06-11T19:12:23.439Z,21.40
2018-06-11T19:14:52.112Z,21.30
2018-06-11T19:17:20.967Z,21.30
2018-06-11T19:19:49.708Z,21.20
2018-06-11T19:22:19.315Z,21.20
2018-06-11T19:24:47.797Z,21.00
2018-06-11T19:27:16.379Z,20.90
2018-06-11T19:29:48.182Z,20.90
2018-06-11T19:32:16.802Z,20.80
2018-06-11T19:34:45.584Z,20.60
2018-06-11T19:37:15.227Z,20.50
2018-06-11T19:42:12.386Z,20.30
2018-06-11T19:44:43.399Z,20.20
2018-06-11T19:47:11.887Z,20.10
2018-06-11T19:49:44.304Z,20.10
2018-06-11T19:52:12.911Z,20.00
2018-06-11T19:54:41.477Z,19.90
2018-06-11T19:57:10.109Z,19.80
2018-06-11T19:59:38.611Z,19.70
2018-06-11T20:02:10.200Z,19.60
2018-06-11T20:04:38.642Z,19.50
2018-06-11T20:07:07.229Z,19.50
2018-06-11T20:09:35.744Z,19.40
2018-06-11T20:12:05.807Z,19.50
2018-06-11T20:14:35.059Z,19.50
2018-06-11T20:17:03.560Z,19.30
2018-06-11T20:19:33.271Z,19.20
2018-06-11T20:26:58.204Z,19.10
2018-06-11T20:29:26.681Z,19.00
2018-06-11T20:31:55.166Z,19.00
2018-06-11T20:34:23.683Z,18.90
2018-06-11T20:36:52.154Z,18.80
2018-06-11T20:39:20.650Z,18.70
2018-06-11T20:41:49.447Z,18.70
2018-06-11T20:44:17.970Z,18.60
2018-06-11T20:46:46.422Z,18.50
2018-06-11T20:49:14.918Z,18.50
2018-06-11T20:51:43.406Z,18.30
2018-06-11T20:54:11.955Z,18.30
2018-06-11T20:56:40.391Z,18.20
2018-06-11T20:59:09.317Z,18.10
2018-06-11T21:01:37.808Z,18.00
2018-06-11T21:04:06.431Z,17.90
2018-06-11T21:06:35.665Z,17.90
2018-06-11T21:09:06.158Z,17.80
2018-06-11T21:11:34.829Z,17.70
2018-06-11T21:14:05.495Z,17.60
2018-06-11T21:16:34.221Z,17.60
2018-06-11T21:19:04.344Z,17.50
2018-06-11T21:21:33.035Z,17.40
2018-06-11T21:24:01.655Z,17.30
2018-06-11T21:26:30.429Z,17.30
2018-06-11T21:28:59.343Z,17.20
2018-06-11T21:31:27.959Z,17.10
2018-06-11T21:33:56.564Z,17.10
2018-06-11T21:36:25.262Z,17.00
2018-06-11T21:38:54.111Z,16.90
2018-06-11T21:41:22.963Z,16.90
2018-06-11T21:43:52.105Z,16.80
2018-06-11T21:46:20.738Z,16.80
2018-06-11T21:48:49.789Z,16.70
2018-06-11T21:51:18.628Z,16.60
2018-06-11T21:53:47.334Z,16.50
2018-06-11T21:56:15.925Z,16.50
2018-06-11T21:58:44.530Z,16.40
2018-06-11T22:01:13.203Z,16.40
2018-06-11T22:03:41.944Z,16.30
2018-06-11T22:06:10.558Z,16.30
2018-06-11T22:08:39.244Z,16.20
2018-06-11T22:11:08.322Z,16.20
2018-06-11T22:13:36.959Z,16.10
2018-06-11T22:16:07.301Z,16.00
2018-06-11T22:18:36.016Z,16.00
2018-06-11T22:21:04.667Z,16.00
2018-06-11T22:23:33.217Z,15.90
2018-06-11T22:26:02.001Z,16.00
2018-06-11T22:28:30.711Z,16.00
2018-06-11T22:30:59.370Z,15.90
2018-06-11T22:33:27.955Z,15.80
2018-06-11T22:35:56.554Z,15.80
2018-06-11T22:38:25.160Z,15.80
2018-06-11T22:40:54.022Z,15.80
2018-06-11T22:43:22.773Z,15.90
2018-06-11T22:45:51.357Z,15.80
2018-06-11T22:48:19.975Z,15.80
2018-06-11T22:50:48.558Z,15.80
2018-06-11T22:53:17.169Z,15.70
2018-06-11T22:55:45.826Z,15.70
2018-06-11T22:58:14.638Z,15.50
2018-06-11T23:00:43.774Z,15.50
2018-06-11T23:03:12.598Z,15.50
2018-06-11T23:05:41.218Z,15.40
2018-06-11T23:08:10.125Z,15.40
2018-06-11T23:10:40.046Z,15.40
2018-06-11T23:13:08.826Z,15.40
2018-06-11T23:15:37.463Z,15.40
2018-06-11T23:18:06.063Z,15.30
2018-06-11T23:20:34.600Z,15.30
2018-06-11T23:23:03.313Z,15.30
2018-06-11T23:25:32.508Z,15.20
2018-06-11T23:28:01.122Z,15.20
2018-06-11T23:30:29.807Z,15.10
2018-06-11T23:32:58.296Z,15.00
2018-06-11T23:35:27.148Z,15.00
2018-06-11T23:37:56.040Z,15.10
2018-06-11T23:40:24.544Z,15.00
2018-06-11T23:42:53.327Z,14.90
2018-06-11T23:45:22.344Z,14.90
2018-06-11T23:47:51.823Z,14.80
2018-06-11T23:50:20.409Z,14.70
2018-06-11T23:52:49.410Z,14.70
2018-06-11T23:55:18.045Z,14.70
2018-06-11T23:57:46.730Z,14.60
